Time;durP1;ratioP1;P1;durP2;ratioP2;P2;SDS_P1;SDS_P2;PMS_P1;PMS_P2;Temp;Humidity;BMP_temperature;BMP_pressure;BME280_temperature;BME280_humidity;BME280_pressure;Samples;Min_cycle;Max_cycle;Signal;HPM_P1;HPM_P2
2022/12/10 00:01:56;;;;;;;52.03;22.75;;;;;;;;;;5054743;28;20049;-79
2022/12/10 00:04:22;;;;;;;53.28;23.35;;;;;;;;;;5054618;28;20048;-79
2022/12/10 00:06:49;;;;;;;53.92;23.20;;;;;;;;;;5055392;28;20052;-79
2022/12/10 00:09:17;;;;;;;56.67;22.98;;;;;;;;;;5056191;28;20120;-80
2022/12/10 00:11:43;;;;;;;57.10;23.08;;;;;;;;;;5056287;28;20061;-80
2022/12/10 00:14:11;;;;;;;55.25;23.13;;;;;;;;;;5054644;28;20059;-79
2022/12/10 00:16:38;;;;;;;58.80;23.77;;;;;;;;;;5055532;28;20041;-80
2022/12/10 00:19:04;;;;;;;58.08;23.23;;;;;;;;;;5087807;28;20304;-79
2022/12/10 00:21:32;;;;;;;63.25;24.20;;;;;;;;;;5055580;28;20041;-79
2022/12/10 00:23:59;;;;;;;61.85;25.35;;;;;;;;;;5055142;28;20049;-80
2022/12/10 00:26:27;;;;;;;53.40;23.05;;;;;;;;;;5054949;28;20075;-80
2022/12/10 00:28:55;;;;;;;59.40;23.38;;;;;;;;;;5055627;28;20045;-80
2022/12/10 00:31:25;;;;;;;61.50;25.90;;;;;;;;;;5055102;28;20088;-80
2022/12/10 00:33:56;;;;;;;60.00;24.67;;;;;;;;;;5052850;28;20041;-80
2022/12/10 00:36:23;;;;;;;65.70;24.90;;;;;;;;;;5066331;28;20045;-80
2022/12/10 00:38:50;;;;;;;58.10;23.35;;;;;;;;;;5076240;28;20049;-80
2022/12/10 00:41:19;;;;;;;63.45;24.13;;;;;;;;;;5074886;28;20507;-80
2022/12/10 00:43:46;;;;;;;57.85;22.98;;;;;;;;;;5074546;28;20052;-81
2022/12/10 00:46:14;;;;;;;66.22;23.92;;;;;;;;;;5073857;28;20051;-80
2022/12/10 00:48:41;;;;;;;64.97;24.15;;;;;;;;;;5076052;28;20041;-80
2022/12/10 00:51:12;;;;;;;67.60;24.33;;;;;;;;;;5075583;28;20059;-81
2022/12/10 00:53:39;;;;;;;70.47;25.00;;;;;;;;;;5072690;28;20127;-81
2022/12/10 00:56:06;;;;;;;64.13;24.63;;;;;;;;;;5073286;28;20133;-79
2022/12/10 00:58:33;;;;;;;64.68;25.20;;;;;;;;;;5073628;28;20048;-79
2022/12/10 01:01:15;;;;;;;69.75;25.17;;;;;;;;;;5057776;28;20044;-79
2022/12/10 01:03:42;;;;;;;69.13;24.55;;;;;;;;;;5046903;28;20045;-80
2022/12/10 01:06:18;;;;;;;68.05;24.17;;;;;;;;;;5055877;28;20045;-80
2022/12/10 01:08:45;;;;;;;71.80;25.38;;;;;;;;;;5054487;28;20469;-80
2022/12/10 01:11:12;;;;;;;67.88;24.70;;;;;;;;;;5053841;28;20056;-80
2022/12/10 01:13:39;;;;;;;69.78;24.67;;;;;;;;;;5054955;28;20045;-80
2022/12/10 01:16:07;;;;;;;70.43;24.60;;;;;;;;;;5059091;28;20049;-80
2022/12/10 01:18:36;;;;;;;67.50;24.92;;;;;;;;;;5056757;28;20053;-81
2022/12/10 01:21:17;;;;;;;69.97;24.55;;;;;;;;;;5051158;28;20052;-80
2022/12/10 01:23:44;;;;;;;69.40;24.83;;;;;;;;;;5053342;28;20045;-80
2022/12/10 01:26:13;;;;;;;73.60;25.05;;;;;;;;;;5054024;28;20044;-80
2022/12/10 01:28:40;;;;;;;76.07;25.67;;;;;;;;;;5056942;28;20049;-80
2022/12/10 01:31:10;;;;;;;73.18;25.15;;;;;;;;;;5053701;28;20151;-81
2022/12/10 01:33:37;;;;;;;72.55;24.75;;;;;;;;;;5053084;28;20194;-81
2022/12/10 01:36:08;;;;;;;85.80;25.05;;;;;;;;;;5062628;28;20056;-79
2022/12/10 01:38:35;;;;;;;86.03;25.77;;;;;;;;;;5073777;28;20112;-80
2022/12/10 01:41:01;;;;;;;84.28;25.25;;;;;;;;;;5073773;28;20040;-81
2022/12/10 01:43:47;;;;;;;81.50;24.05;;;;;;;;;;5074143;28;20144;-81
2022/12/10 01:46:13;;;;;;;90.63;25.08;;;;;;;;;;5073393;28;20048;-79
2022/12/10 01:48:40;;;;;;;95.80;27.05;;;;;;;;;;5074092;28;20049;-80
2022/12/10 01:51:06;;;;;;;79.75;24.65;;;;;;;;;;5073612;28;20324;-79
2022/12/10 01:53:34;;;;;;;80.65;24.77;;;;;;;;;;5073165;28;20078;-80
2022/12/10 01:56:00;;;;;;;80.93;24.88;;;;;;;;;;5074568;28;20138;-79
2022/12/10 01:58:27;;;;;;;86.45;25.15;;;;;;;;;;5058591;28;20056;-79
2022/12/10 02:01:00;;;;;;;81.35;24.75;;;;;;;;;;5052344;28;20140;-81
2022/12/10 02:03:52;;;;;;;78.70;23.70;;;;;;;;;;5051767;28;20099;-81
2022/12/10 02:06:30;;;;;;;79.10;23.05;;;;;;;;;;5051852;28;20049;-80
2022/12/10 02:08:56;;;;;;;77.28;22.73;;;;;;;;;;5055764;28;20151;-81
2022/12/10 02:11:27;;;;;;;81.03;23.67;;;;;;;;;;5058366;28;20478;-81
2022/12/10 02:14:02;;;;;;;85.50;23.77;;;;;;;;;;5058510;28;20051;-81
2022/12/10 02:16:31;;;;;;;80.85;23.73;;;;;;;;;;5059772;28;20060;-80
2022/12/10 02:19:00;;;;;;;88.30;24.05;;;;;;;;;;5058068;28;20049;-81
2022/12/10 02:21:32;;;;;;;78.78;23.02;;;;;;;;;;5060472;28;20048;-80
2022/12/10 02:24:03;;;;;;;78.13;23.23;;;;;;;;;;5059773;28;20072;-81
2022/12/10 02:26:48;;;;;;;79.78;24.48;;;;;;;;;;5060019;28;20053;-80
2022/12/10 02:29:16;;;;;;;89.40;23.88;;;;;;;;;;5057847;28;20044;-81
2022/12/10 02:31:52;;;;;;;91.63;24.58;;;;;;;;;;5058885;28;20051;-81
2022/12/10 02:34:19;;;;;;;81.68;23.48;;;;;;;;;;5063347;28;20049;-80
2022/12/10 02:36:47;;;;;;;85.72;23.35;;;;;;;;;;5072757;28;20044;-81
2022/12/10 02:39:17;;;;;;;87.03;24.23;;;;;;;;;;5079377;28;20052;-80
2022/12/10 02:41:54;;;;;;;87.53;23.52;;;;;;;;;;5079334;28;20214;-80
2022/12/10 02:44:21;;;;;;;84.05;24.27;;;;;;;;;;5077298;28;20045;-80
2022/12/10 02:46:51;;;;;;;77.75;24.15;;;;;;;;;;5077991;28;20045;-80
2022/12/10 02:49:18;;;;;;;78.47;22.50;;;;;;;;;;5078928;28;20044;-80
2022/12/10 02:51:44;;;;;;;79.50;22.90;;;;;;;;;;5078027;28;20063;-80
2022/12/10 02:54:32;;;;;;;90.43;23.67;;;;;;;;;;5076597;28;20492;-80
2022/12/10 02:57:01;;;;;;;67.80;18.07;;;;;;;;;;5078072;28;20452;-81
2022/12/10 02:59:29;;;;;;;86.10;23.60;;;;;;;;;;5077694;28;20053;-79
2022/12/10 03:02:14;;;;;;;87.88;23.48;;;;;;;;;;5078353;28;20064;-79
2022/12/10 03:04:52;;;;;;;67.20;18.35;;;;;;;;;;5079244;28;20052;-80
2022/12/10 03:07:22;;;;;;;90.63;22.95;;;;;;;;;;5078761;28;20052;-79
2022/12/10 03:09:55;;;;;;;101.07;24.40;;;;;;;;;;5079188;28;20094;-79
2022/12/10 03:12:48;;;;;;;91.40;23.75;;;;;;;;;;5110930;28;20154;-80
2022/12/10 03:15:16;;;;;;;86.53;23.50;;;;;;;;;;5075785;28;20045;-80
2022/12/10 03:17:43;;;;;;;95.07;24.15;;;;;;;;;;5078351;28;20489;-80
2022/12/10 03:20:12;;;;;;;94.65;24.42;;;;;;;;;;5109059;28;20139;-82
2022/12/10 03:22:39;;;;;;;109.03;25.08;;;;;;;;;;5079891;28;20515;-80
2022/12/10 03:25:07;;;;;;;104.72;24.55;;;;;;;;;;5078273;28;20051;-79
2022/12/10 03:27:33;;;;;;;110.75;24.70;;;;;;;;;;5077815;28;20178;-79
2022/12/10 03:30:00;;;;;;;104.35;24.70;;;;;;;;;;5077079;28;20056;-79
2022/12/10 03:32:27;;;;;;;99.53;25.42;;;;;;;;;;5076161;28;20071;-77
2022/12/10 03:34:55;;;;;;;110.55;26.95;;;;;;;;;;5071696;28;20078;-80
2022/12/10 03:37:22;;;;;;;103.18;25.77;;;;;;;;;;5058333;28;20052;-80
2022/12/10 03:39:49;;;;;;;121.78;27.60;;;;;;;;;;5057002;28;20049;-80
2022/12/10 03:42:16;;;;;;;108.50;26.45;;;;;;;;;;5056556;28;20052;-80
2022/12/10 03:44:42;;;;;;;112.43;26.83;;;;;;;;;;5063323;28;20088;-80
2022/12/10 03:47:12;;;;;;;107.40;25.50;;;;;;;;;;5074350;28;20062;-81
2022/12/10 03:49:38;;;;;;;119.72;28.33;;;;;;;;;;5074504;28;20283;-82
2022/12/10 03:52:10;;;;;;;117.72;26.40;;;;;;;;;;5073711;28;20052;-81
2022/12/10 03:54:36;;;;;;;121.93;27.00;;;;;;;;;;5070919;28;20144;-81
2022/12/10 03:57:03;;;;;;;115.10;27.00;;;;;;;;;;5057658;28;20049;-80
2022/12/10 03:59:29;;;;;;;132.85;28.38;;;;;;;;;;5056675;28;20140;-80
2022/12/10 04:01:55;;;;;;;109.93;26.75;;;;;;;;;;5056294;28;20041;-81
2022/12/10 04:04:22;;;;;;;118.28;28.58;;;;;;;;;;5056743;28;20366;-80
2022/12/10 04:06:48;;;;;;;114.00;27.88;;;;;;;;;;5051495;28;20057;-79
2022/12/10 04:09:15;;;;;;;117.13;27.45;;;;;;;;;;5036866;28;20037;-80
2022/12/10 04:11:42;;;;;;;114.47;27.83;;;;;;;;;;5035421;28;20049;-78
2022/12/10 04:16:56;;;;;;;83.65;20.23;;;;;;;;;;5036198;28;20160;-79
2022/12/10 04:19:25;;;;;;;116.97;28.25;;;;;;;;;;5036192;28;20064;-80
2022/12/10 04:27:25;;;;;;;107.87;26.53;;;;;;;;;;5036213;28;20314;-79
2022/12/10 04:29:52;;;;;;;115.20;27.20;;;;;;;;;;5034630;28;20733;-79
2022/12/10 04:32:19;;;;;;;134.02;28.23;;;;;;;;;;5034986;28;20057;-80
2022/12/10 04:34:45;;;;;;;113.82;27.17;;;;;;;;;;5047698;28;20059;-80
2022/12/10 04:37:12;;;;;;;105.90;26.33;;;;;;;;;;5066731;28;20144;-80
2022/12/10 04:39:39;;;;;;;113.13;26.23;;;;;;;;;;5076423;28;20059;-80
2022/12/10 04:42:06;;;;;;;114.82;27.80;;;;;;;;;;5075760;28;20094;-81
2022/12/10 04:44:32;;;;;;;119.40;27.17;;;;;;;;;;5074749;28;20059;-80
2022/12/10 04:46:59;;;;;;;110.63;26.52;;;;;;;;;;5075857;28;20052;-80
2022/12/10 04:49:26;;;;;;;104.93;24.20;;;;;;;;;;5080676;28;20079;-81
2022/12/10 04:51:52;;;;;;;98.13;25.15;;;;;;;;;;5082615;28;20135;-81
2022/12/10 04:54:19;;;;;;;100.18;25.65;;;;;;;;;;5083707;28;20055;-81
2022/12/10 04:56:46;;;;;;;107.95;25.52;;;;;;;;;;5086037;28;20393;-80
2022/12/10 04:59:12;;;;;;;107.90;26.83;;;;;;;;;;5070970;28;20039;-80
2022/12/10 05:01:39;;;;;;;99.68;25.08;;;;;;;;;;5072163;28;20047;-81
2022/12/10 05:04:07;;;;;;;108.47;25.45;;;;;;;;;;5063818;28;20528;-81
2022/12/10 05:06:36;;;;;;;112.05;25.40;;;;;;;;;;5073534;28;20053;-82
2022/12/10 05:09:03;;;;;;;103.35;26.60;;;;;;;;;;5068000;28;20136;-81
2022/12/10 05:11:32;;;;;;;104.25;24.23;;;;;;;;;;5062351;28;20114;-81
2022/12/10 05:13:59;;;;;;;92.20;23.70;;;;;;;;;;5061307;28;20051;-79
2022/12/10 05:16:26;;;;;;;104.53;25.50;;;;;;;;;;5056390;28;20063;-80
2022/12/10 05:18:56;;;;;;;98.75;25.60;;;;;;;;;;5057271;28;20172;-80
2022/12/10 05:21:23;;;;;;;100.65;24.20;;;;;;;;;;5056103;28;20048;-79
2022/12/10 05:23:50;;;;;;;94.85;24.67;;;;;;;;;;5055881;28;20052;-80
2022/12/10 05:26:17;;;;;;;102.97;24.42;;;;;;;;;;5053841;28;20121;-79
2022/12/10 05:28:44;;;;;;;94.25;23.30;;;;;;;;;;5056494;28;20049;-80
2022/12/10 05:31:12;;;;;;;97.55;25.00;;;;;;;;;;5054362;28;20053;-80
2022/12/10 05:33:39;;;;;;;92.28;23.55;;;;;;;;;;5053687;28;20250;-80
2022/12/10 05:36:06;;;;;;;88.03;23.55;;;;;;;;;;5062113;28;20049;-80
2022/12/10 05:38:34;;;;;;;99.82;25.52;;;;;;;;;;5054621;28;20041;-80
2022/12/10 05:41:01;;;;;;;96.13;25.00;;;;;;;;;;5054495;28;20055;-77
2022/12/10 05:43:27;;;;;;;100.50;24.90;;;;;;;;;;5053607;28;20144;-80
2022/12/10 05:45:53;;;;;;;99.07;25.20;;;;;;;;;;5053155;28;20105;-80
2022/12/10 05:48:20;;;;;;;85.55;23.33;;;;;;;;;;5054269;28;20048;-79
2022/12/10 05:50:47;;;;;;;84.13;24.42;;;;;;;;;;5054924;28;20440;-79
2022/12/10 05:53:14;;;;;;;78.88;23.23;;;;;;;;;;5052768;28;20045;-79
2022/12/10 05:55:40;;;;;;;86.78;23.33;;;;;;;;;;5053724;28;20049;-79
2022/12/10 05:58:08;;;;;;;85.53;24.05;;;;;;;;;;5053421;28;20055;-80
2022/12/10 06:00:34;;;;;;;89.70;23.02;;;;;;;;;;5053407;28;20053;-80
2022/12/10 06:03:01;;;;;;;84.47;23.85;;;;;;;;;;5052976;28;20053;-80
2022/12/10 06:05:27;;;;;;;78.60;21.48;;;;;;;;;;5053649;28;20053;-80
2022/12/10 06:07:54;;;;;;;85.60;22.90;;;;;;;;;;5054577;28;20053;-80
2022/12/10 06:10:20;;;;;;;86.40;22.90;;;;;;;;;;5054369;28;20064;-80
2022/12/10 06:12:47;;;;;;;79.10;23.17;;;;;;;;;;5049885;28;20076;-79
2022/12/10 06:15:13;;;;;;;83.00;22.98;;;;;;;;;;5054622;28;20052;-81
2022/12/10 06:17:39;;;;;;;84.72;21.88;;;;;;;;;;5055044;28;20055;-81
2022/12/10 06:20:06;;;;;;;85.82;23.13;;;;;;;;;;5052805;28;20037;-79
2022/12/10 06:22:33;;;;;;;74.95;21.35;;;;;;;;;;5053379;28;20049;-80
2022/12/10 06:25:00;;;;;;;76.65;21.92;;;;;;;;;;5053877;28;20113;-79
2022/12/10 06:27:28;;;;;;;83.60;23.55;;;;;;;;;;5054692;28;20048;-80
2022/12/10 06:29:55;;;;;;;78.45;22.08;;;;;;;;;;5053603;28;20049;-80
2022/12/10 06:32:24;;;;;;;76.35;21.13;;;;;;;;;;5054288;28;20049;-80
2022/12/10 06:34:50;;;;;;;79.93;22.58;;;;;;;;;;5061107;28;20056;-79
2022/12/10 06:37:17;;;;;;;79.55;22.50;;;;;;;;;;5064220;28;20049;-79
2022/12/10 06:39:43;;;;;;;74.95;22.35;;;;;;;;;;5059467;28;20051;-79
2022/12/10 06:42:09;;;;;;;84.38;21.95;;;;;;;;;;5054753;28;20045;-79
2022/12/10 06:44:36;;;;;;;78.47;21.63;;;;;;;;;;5054942;28;20049;-80
2022/12/10 06:47:02;;;;;;;86.38;22.98;;;;;;;;;;5054617;28;20049;-79
2022/12/10 06:49:29;;;;;;;91.90;24.27;;;;;;;;;;5056078;28;20052;-79
2022/12/10 06:51:55;;;;;;;82.50;22.00;;;;;;;;;;5055856;28;20059;-80
2022/12/10 06:54:22;;;;;;;78.63;21.83;;;;;;;;;;5053970;28;20041;-79
2022/12/10 06:56:48;;;;;;;89.25;22.90;;;;;;;;;;5056167;28;20055;-80
2022/12/10 06:59:15;;;;;;;77.80;21.70;;;;;;;;;;5055613;28;20124;-80
2022/12/10 07:01:41;;;;;;;78.35;21.67;;;;;;;;;;5055484;28;20045;-78
2022/12/10 07:04:08;;;;;;;79.82;21.98;;;;;;;;;;5055266;28;20144;-79
2022/12/10 07:06:34;;;;;;;75.30;21.50;;;;;;;;;;5055897;28;20048;-79
2022/12/10 07:09:00;;;;;;;79.05;23.40;;;;;;;;;;5055342;28;20129;-80
2022/12/10 07:11:27;;;;;;;82.80;23.60;;;;;;;;;;5054699;28;20057;-79
2022/12/10 07:13:53;;;;;;;84.78;23.63;;;;;;;;;;5053812;28;20045;-78
2022/12/10 07:16:25;;;;;;;78.35;21.27;;;;;;;;;;5085990;28;20083;-80
2022/12/10 07:18:52;;;;;;;80.82;23.10;;;;;;;;;;5059065;28;20573;-81
2022/12/10 07:21:24;;;;;;;77.35;21.65;;;;;;;;;;5057839;28;20044;-80
2022/12/10 07:23:53;;;;;;;76.55;20.98;;;;;;;;;;5056675;28;20088;-80
2022/12/10 07:26:19;;;;;;;77.35;21.75;;;;;;;;;;5086681;28;20048;-78
2022/12/10 07:28:46;;;;;;;68.82;21.77;;;;;;;;;;5052608;28;20072;-79
2022/12/10 07:31:18;;;;;;;68.53;20.50;;;;;;;;;;5051352;28;20084;-80
2022/12/10 07:33:45;;;;;;;71.82;20.65;;;;;;;;;;5048922;28;20506;-79
2022/12/10 07:36:12;;;;;;;70.43;20.95;;;;;;;;;;5050454;28;20041;-80
2022/12/10 07:38:38;;;;;;;71.57;21.67;;;;;;;;;;5059586;28;20048;-80
2022/12/10 07:41:06;;;;;;;65.97;19.23;;;;;;;;;;5064463;28;20059;-80
2022/12/10 07:43:33;;;;;;;65.25;19.73;;;;;;;;;;5089700;28;20110;-80
2022/12/10 07:46:23;;;;;;;65.95;20.02;;;;;;;;;;5055930;28;20087;-79
2022/12/10 07:48:50;;;;;;;67.82;19.95;;;;;;;;;;5055154;28;20472;-80
2022/12/10 07:51:17;;;;;;;73.35;21.15;;;;;;;;;;5061153;28;20075;-79
2022/12/10 07:53:44;;;;;;;62.00;19.98;;;;;;;;;;5055292;28;20061;-79
2022/12/10 07:56:10;;;;;;;69.38;20.33;;;;;;;;;;5057461;28;20049;-81
2022/12/10 07:58:37;;;;;;;70.32;20.23;;;;;;;;;;5059454;28;20115;-79
2022/12/10 08:01:07;;;;;;;68.65;19.13;;;;;;;;;;5088011;28;20064;-80
2022/12/10 08:03:34;;;;;;;69.07;21.92;;;;;;;;;;5086888;28;20045;-79
2022/12/10 08:06:01;;;;;;;71.25;21.00;;;;;;;;;;5054551;28;20188;-79
2022/12/10 08:08:27;;;;;;;65.38;21.60;;;;;;;;;;5056206;28;20059;-80
2022/12/10 08:10:54;;;;;;;74.07;21.10;;;;;;;;;;5055119;28;20045;-79
2022/12/10 08:13:20;;;;;;;63.30;20.60;;;;;;;;;;5056705;28;20368;-79
2022/12/10 08:15:47;;;;;;;74.55;22.77;;;;;;;;;;5093723;28;20037;-79
2022/12/10 08:18:13;;;;;;;69.72;21.38;;;;;;;;;;5060369;28;20117;-80
2022/12/10 08:20:40;;;;;;;69.20;20.95;;;;;;;;;;5054949;28;20069;-80
2022/12/10 08:23:06;;;;;;;65.18;20.85;;;;;;;;;;5051420;28;20049;-80
2022/12/10 08:25:32;;;;;;;67.57;20.55;;;;;;;;;;5054174;28;20045;-80
2022/12/10 08:28:05;;;;;;;74.13;22.15;;;;;;;;;;5054047;28;20501;-81
2022/12/10 08:30:32;;;;;;;76.47;23.38;;;;;;;;;;5054347;28;20052;-81
2022/12/10 08:32:58;;;;;;;69.68;21.80;;;;;;;;;;5052675;28;20056;-79
2022/12/10 08:35:25;;;;;;;76.38;21.52;;;;;;;;;;5055414;28;20040;-80
2022/12/10 08:37:51;;;;;;;69.50;21.55;;;;;;;;;;5053841;28;20049;-80
2022/12/10 08:40:18;;;;;;;76.43;21.65;;;;;;;;;;5051387;28;20094;-81
2022/12/10 08:42:44;;;;;;;73.22;21.95;;;;;;;;;;5049211;28;20049;-77
2022/12/10 08:45:11;;;;;;;60.83;19.73;;;;;;;;;;5050560;28;20055;-82
2022/12/10 08:47:37;;;;;;;60.45;19.80;;;;;;;;;;5049924;28;20045;-82
2022/12/10 08:50:03;;;;;;;58.45;18.90;;;;;;;;;;5054389;28;20136;-83
2022/12/10 08:52:30;;;;;;;64.55;20.45;;;;;;;;;;5053482;28;20041;-81
2022/12/10 08:54:56;;;;;;;65.15;19.25;;;;;;;;;;5085252;28;20048;-82
2022/12/10 08:57:25;;;;;;;62.22;19.27;;;;;;;;;;5055219;28;20548;-79
2022/12/10 08:59:53;;;;;;;62.22;19.55;;;;;;;;;;5052608;28;20176;-82
2022/12/10 09:02:19;;;;;;;66.90;21.13;;;;;;;;;;5055563;28;20037;-79
2022/12/10 09:04:46;;;;;;;60.72;19.45;;;;;;;;;;5053143;28;20049;-80
2022/12/10 09:07:12;;;;;;;61.72;20.42;;;;;;;;;;5049725;28;20049;-79
2022/12/10 09:09:39;;;;;;;57.20;19.35;;;;;;;;;;5051429;28;20057;-81
2022/12/10 09:12:06;;;;;;;63.88;19.67;;;;;;;;;;5050939;28;20064;-80
2022/12/10 09:14:32;;;;;;;56.70;17.70;;;;;;;;;;5050378;28;20045;-79
2022/12/10 09:16:58;;;;;;;54.00;18.70;;;;;;;;;;5050360;28;20045;-80
2022/12/10 09:19:25;;;;;;;48.85;17.65;;;;;;;;;;5084460;28;20052;-80
2022/12/10 09:21:51;;;;;;;55.78;18.60;;;;;;;;;;5052548;28;20135;-79
2022/12/10 09:24:18;;;;;;;51.90;19.05;;;;;;;;;;5050392;28;20059;-81
2022/12/10 09:26:44;;;;;;;45.45;16.70;;;;;;;;;;5050953;28;20056;-79
2022/12/10 09:29:10;;;;;;;55.05;19.23;;;;;;;;;;5052865;28;20335;-80
2022/12/10 09:31:37;;;;;;;54.80;18.88;;;;;;;;;;5052904;28;20125;-79
2022/12/10 09:34:03;;;;;;;48.25;17.58;;;;;;;;;;5052870;28;20166;-78
2022/12/10 09:36:30;;;;;;;43.70;17.98;;;;;;;;;;5062347;28;20516;-81
2022/12/10 09:38:59;;;;;;;51.50;19.02;;;;;;;;;;5047623;28;20638;-81
2022/12/10 09:41:29;;;;;;;49.05;18.35;;;;;;;;;;5052088;28;20762;-82
2022/12/10 09:43:58;;;;;;;52.20;17.50;;;;;;;;;;5051974;28;20052;-82
2022/12/10 09:46:43;;;;;;;55.33;19.65;;;;;;;;;;5052076;28;20375;-80
2022/12/10 09:49:22;;;;;;;47.58;18.00;;;;;;;;;;5033198;28;20045;-80
2022/12/10 09:51:50;;;;;;;49.00;17.50;;;;;;;;;;5033488;28;20109;-80
2022/12/10 09:54:24;;;;;;;48.38;17.52;;;;;;;;;;5052219;28;20049;-80
2022/12/10 09:56:51;;;;;;;44.92;16.13;;;;;;;;;;5035307;28;20049;-79
2022/12/10 09:59:30;;;;;;;45.00;17.80;;;;;;;;;;5051928;28;20060;-79
2022/12/10 10:02:32;;;;;;;45.40;16.95;;;;;;;;;;5051282;28;20045;-79
2022/12/10 10:05:06;;;;;;;42.63;16.00;;;;;;;;;;5028091;28;20038;-78
2022/12/10 10:07:34;;;;;;;42.78;16.92;;;;;;;;;;5066915;28;20037;-79
2022/12/10 10:10:05;;;;;;;42.22;15.95;;;;;;;;;;5070017;28;20113;-79
2022/12/10 10:12:33;;;;;;;41.03;15.88;;;;;;;;;;5067157;28;20105;-79
2022/12/10 10:15:10;;;;;;;40.95;15.93;;;;;;;;;;5073342;28;20072;-80
2022/12/10 10:17:37;;;;;;;44.38;16.70;;;;;;;;;;5035141;28;20048;-80
2022/12/10 10:20:04;;;;;;;44.50;17.48;;;;;;;;;;5056159;28;20053;-81
2022/12/10 10:22:30;;;;;;;49.67;17.90;;;;;;;;;;5062278;28;20132;-80
2022/12/10 10:24:58;;;;;;;54.42;18.20;;;;;;;;;;5057839;28;20049;-81
2022/12/10 10:27:28;;;;;;;53.22;18.70;;;;;;;;;;5065537;28;20177;-80
2022/12/10 10:29:56;;;;;;;46.80;17.83;;;;;;;;;;5062637;28;20040;-79
2022/12/10 10:32:35;;;;;;;49.63;18.52;;;;;;;;;;5065302;28;20036;-80
2022/12/10 10:35:02;;;;;;;47.90;18.02;;;;;;;;;;5073373;28;20045;-80
2022/12/10 10:37:31;;;;;;;49.42;18.77;;;;;;;;;;5070095;28;20041;-83
2022/12/10 10:39:58;;;;;;;48.78;18.52;;;;;;;;;;5086993;28;20095;-81
2022/12/10 10:42:35;;;;;;;49.70;18.60;;;;;;;;;;5091785;28;20112;-81
2022/12/10 10:45:03;;;;;;;55.35;19.90;;;;;;;;;;5075813;28;20556;-81
2022/12/10 10:47:30;;;;;;;57.42;21.00;;;;;;;;;;5075957;28;20147;-78
2022/12/10 10:50:01;;;;;;;61.17;22.15;;;;;;;;;;5055328;28;20071;-80
2022/12/10 10:52:35;;;;;;;60.67;21.50;;;;;;;;;;5039750;28;20048;-80
2022/12/10 10:55:01;;;;;;;55.22;19.70;;;;;;;;;;5086401;28;20814;-80
2022/12/10 10:57:37;;;;;;;57.08;21.02;;;;;;;;;;5076970;28;20051;-81
2022/12/10 11:00:05;;;;;;;56.47;20.90;;;;;;;;;;5068009;28;20615;-79
2022/12/10 11:02:37;;;;;;;57.92;20.60;;;;;;;;;;5035122;28;20489;-80
2022/12/10 11:05:07;;;;;;;62.75;22.05;;;;;;;;;;5053368;28;20049;-82
2022/12/10 11:07:36;;;;;;;53.05;18.85;;;;;;;;;;5041117;28;20484;-82
2022/12/10 11:10:12;;;;;;;54.83;20.17;;;;;;;;;;5053399;28;20051;-80
2022/12/10 11:12:39;;;;;;;65.38;22.40;;;;;;;;;;5052394;28;20056;-79
2022/12/10 11:15:21;;;;;;;54.03;20.83;;;;;;;;;;5052128;28;20067;-80
2022/12/10 11:17:52;;;;;;;52.83;20.25;;;;;;;;;;5053249;28;20052;-79
2022/12/10 11:20:21;;;;;;;63.08;22.92;;;;;;;;;;5053483;28;20049;-80
2022/12/10 11:22:50;;;;;;;61.65;21.17;;;;;;;;;;5052836;28;20037;-82
2022/12/10 11:25:17;;;;;;;48.97;20.13;;;;;;;;;;5051736;28;20140;-81
2022/12/10 11:27:54;;;;;;;49.95;19.02;;;;;;;;;;5053852;28;20056;-81
2022/12/10 11:30:23;;;;;;;45.53;17.60;;;;;;;;;;5036557;28;20509;-81
2022/12/10 11:32:58;;;;;;;54.45;19.77;;;;;;;;;;5037103;28;20045;-81
2022/12/10 11:35:33;;;;;;;54.85;19.80;;;;;;;;;;5056294;28;20133;-80
2022/12/10 11:38:32;;;;;;;75.18;25.45;;;;;;;;;;5058544;28;20099;-79
2022/12/10 11:41:08;;;;;;;53.70;19.23;;;;;;;;;;5029336;28;20132;-82
2022/12/10 11:43:45;;;;;;;46.38;18.23;;;;;;;;;;5053911;28;20045;-80
2022/12/10 11:46:20;;;;;;;42.70;16.58;;;;;;;;;;5057999;28;20041;-81
2022/12/10 11:48:55;;;;;;;43.45;18.00;;;;;;;;;;5054965;28;20579;-79
2022/12/10 11:51:30;;;;;;;53.60;21.13;;;;;;;;;;5054814;28;20053;-80
2022/12/10 11:54:16;;;;;;;64.93;24.67;;;;;;;;;;5055938;28;20071;-80
2022/12/10 11:56:43;;;;;;;92.30;35.53;;;;;;;;;;5038475;28;20045;-81
2022/12/10 11:59:16;;;;;;;97.97;32.85;;;;;;;;;;5054371;28;20609;-81
2022/12/10 12:01:46;;;;;;;81.47;29.55;;;;;;;;;;5053815;28;20542;-80
2022/12/10 12:04:32;;;;;;;43.05;18.30;;;;;;;;;;5054908;28;20135;-81
2022/12/10 12:07:10;;;;;;;50.83;18.80;;;;;;;;;;5056645;28;20310;-79
2022/12/10 12:09:42;;;;;;;53.50;21.15;;;;;;;;;;5048066;28;20589;-80
2022/12/10 12:12:21;;;;;;;58.42;22.08;;;;;;;;;;5066064;28;20059;-80
2022/12/10 12:14:58;;;;;;;61.08;22.25;;;;;;;;;;5068562;28;20033;-78
2022/12/10 12:17:28;;;;;;;48.60;19.35;;;;;;;;;;5071239;28;20045;-81
2022/12/10 12:20:02;;;;;;;57.05;22.63;;;;;;;;;;5071918;28;20055;-80
2022/12/10 12:22:31;;;;;;;31.08;13.77;;;;;;;;;;5068008;28;20087;-79
2022/12/10 12:25:00;;;;;;;43.22;18.20;;;;;;;;;;5070117;28;20098;-80
2022/12/10 12:27:26;;;;;;;41.15;16.80;;;;;;;;;;5070681;28;20051;-81
2022/12/10 12:30:05;;;;;;;40.58;17.42;;;;;;;;;;5069909;28;20051;-79
2022/12/10 12:32:38;;;;;;;51.83;21.27;;;;;;;;;;5033951;28;20495;-81
2022/12/10 12:35:11;;;;;;;47.65;19.27;;;;;;;;;;5053160;28;20037;-82
2022/12/10 12:37:57;;;;;;;37.58;16.58;;;;;;;;;;5054608;28;20442;-83
2022/12/10 12:40:36;;;;;;;44.35;16.95;;;;;;;;;;5054179;28;20053;-82
2022/12/10 12:43:07;;;;;;;41.10;15.90;;;;;;;;;;5052827;28;20056;-81
2022/12/10 12:45:38;;;;;;;42.38;16.98;;;;;;;;;;5052867;28;20592;-80
2022/12/10 12:48:35;;;;;;;41.85;17.75;;;;;;;;;;5054368;28;20049;-82
2022/12/10 12:51:13;;;;;;;34.95;14.88;;;;;;;;;;5039872;28;20142;-81
2022/12/10 12:53:39;;;;;;;39.75;17.00;;;;;;;;;;5050480;28;20056;-80
2022/12/10 12:56:06;;;;;;;42.20;17.95;;;;;;;;;;5053421;28;20049;-80
2022/12/10 12:58:44;;;;;;;39.95;17.23;;;;;;;;;;5055764;28;20076;-80
2022/12/10 13:01:10;;;;;;;42.08;16.60;;;;;;;;;;5034526;28;20437;-81
2022/12/10 13:03:41;;;;;;;35.15;14.85;;;;;;;;;;5033966;28;20550;-82
2022/12/10 13:06:14;;;;;;;33.17;14.23;;;;;;;;;;5052419;28;20075;-80
2022/12/10 13:08:46;;;;;;;32.47;14.25;;;;;;;;;;5050276;28;20125;-80
2022/12/10 13:11:17;;;;;;;37.47;16.17;;;;;;;;;;5048136;28;20105;-79
2022/12/10 13:14:10;;;;;;;41.78;17.27;;;;;;;;;;5047297;28;20052;-80
2022/12/10 13:16:46;;;;;;;44.00;18.08;;;;;;;;;;5053046;28;20060;-79
2022/12/10 13:19:15;;;;;;;46.00;18.15;;;;;;;;;;5046997;28;20049;-78
2022/12/10 13:21:51;;;;;;;42.50;17.80;;;;;;;;;;5050890;28;20390;-79
2022/12/10 13:24:19;;;;;;;41.22;17.50;;;;;;;;;;5049593;28;20320;-80
2022/12/10 13:27:21;;;;;;;40.95;17.92;;;;;;;;;;5050271;28;20201;-79
2022/12/10 13:29:56;;;;;;;36.42;16.08;;;;;;;;;;4986942;28;20490;-81
2022/12/10 13:32:23;;;;;;;40.20;17.38;;;;;;;;;;5041727;28;20061;-81
2022/12/10 13:35:08;;;;;;;38.08;16.38;;;;;;;;;;5061988;28;20140;-83
2022/12/10 13:37:46;;;;;;;37.73;16.57;;;;;;;;;;5054200;28;20044;-80
2022/12/10 13:40:14;;;;;;;44.25;17.98;;;;;;;;;;5049263;28;20040;-79
2022/12/10 13:45:34;;;;;;;42.88;18.48;;;;;;;;;;5048088;28;20052;-81
2022/12/10 13:48:19;;;;;;;39.70;16.85;;;;;;;;;;5051574;28;20045;-82
2022/12/10 13:50:54;;;;;;;39.78;16.08;;;;;;;;;;5051341;28;20064;-81
2022/12/10 13:53:27;;;;;;;34.85;13.52;;;;;;;;;;5050886;28;20044;-82
2022/12/10 13:56:00;;;;;;;48.55;19.75;;;;;;;;;;5050981;28;20044;-82
2022/12/10 13:58:29;;;;;;;51.30;19.27;;;;;;;;;;5051080;28;20089;-83
2022/12/10 14:00:56;;;;;;;41.10;18.35;;;;;;;;;;5052955;28;20053;-82
2022/12/10 14:03:49;;;;;;;47.83;19.08;;;;;;;;;;5052883;28;20041;-81
2022/12/10 14:06:20;;;;;;;46.90;19.83;;;;;;;;;;5053069;28;20067;-80
2022/12/10 14:08:53;;;;;;;45.22;19.00;;;;;;;;;;5051446;28;20053;-81
2022/12/10 14:11:21;;;;;;;45.58;19.67;;;;;;;;;;5053918;28;20060;-83
2022/12/10 14:13:51;;;;;;;50.95;20.63;;;;;;;;;;5053180;28;20065;-83
2022/12/10 14:16:19;;;;;;;49.42;18.35;;;;;;;;;;5051793;28;20049;-82
2022/12/10 14:18:49;;;;;;;47.50;18.75;;;;;;;;;;5053840;28;20251;-83
2022/12/10 14:21:16;;;;;;;45.83;19.05;;;;;;;;;;5055061;28;20053;-82
2022/12/10 14:23:46;;;;;;;42.33;18.40;;;;;;;;;;5052278;28;20398;-83
2022/12/10 14:26:31;;;;;;;44.72;17.50;;;;;;;;;;5054631;28;20413;-82
2022/12/10 14:29:21;;;;;;;36.00;15.85;;;;;;;;;;5056759;28;20052;-82
2022/12/10 14:31:54;;;;;;;37.33;16.40;;;;;;;;;;5031553;28;20053;-82
2022/12/10 14:34:26;;;;;;;45.63;18.23;;;;;;;;;;5033190;28;20067;-83
2022/12/10 14:36:57;;;;;;;44.92;19.20;;;;;;;;;;5036950;28;20064;-83
2022/12/10 14:39:29;;;;;;;52.90;21.50;;;;;;;;;;5052174;28;20170;-81
2022/12/10 14:41:57;;;;;;;47.72;19.77;;;;;;;;;;5051894;28;20500;-83
2022/12/10 14:44:23;;;;;;;48.47;20.27;;;;;;;;;;5050387;28;20286;-82